sensor_id;sensor_type;location;lat;lon;timestamp;P1;durP1;ratioP1;P2;durP2;ratioP2
4500;SDS011;2263;54.654;9.410;2023-01-28T00:02:25;14.30;;;11.07;;
4500;SDS011;2263;54.654;9.410;2023-01-28T00:04:53;19.70;;;11.63;;
4500;SDS011;2263;54.654;9.410;2023-01-28T00:07:20;14.73;;;10.97;;
4500;SDS011;2263;54.654;9.410;2023-01-28T00:09:48;17.30;;;11.23;;
4500;SDS011;2263;54.654;9.410;2023-01-28T00:12:15;14.30;;;11.90;;
4500;SDS011;2263;54.654;9.410;2023-01-28T00:14:45;11.93;;;10.40;;
4500;SDS011;2263;54.654;9.410;2023-01-28T00:17:13;11.67;;;9.83;;
4500;SDS011;2263;54.654;9.410;2023-01-28T00:19:40;13.20;;;10.40;;
4500;SDS011;2263;54.654;9.410;2023-01-28T00:22:07;22.00;;;9.83;;
4500;SDS011;2263;54.654;9.410;2023-01-28T00:24:34;11.60;;;9.10;;
4500;SDS011;2263;54.654;9.410;2023-01-28T00:27:01;15.63;;;9.83;;
4500;SDS011;2263;54.654;9.410;2023-01-28T00:29:29;12.53;;;10.30;;
4500;SDS011;2263;54.654;9.410;2023-01-28T00:31:58;14.87;;;10.23;;
4500;SDS011;2263;54.654;9.410;2023-01-28T00:34:25;9.77;;;8.87;;
4500;SDS011;2263;54.654;9.410;2023-01-28T00:36:52;12.73;;;9.10;;
4500;SDS011;2263;54.654;9.410;2023-01-28T00:39:25;14.30;;;9.57;;
4500;SDS011;2263;54.654;9.410;2023-01-28T00:41:52;9.60;;;8.60;;
4500;SDS011;2263;54.654;9.410;2023-01-28T00:44:20;12.37;;;9.67;;
4500;SDS011;2263;54.654;9.410;2023-01-28T00:46:47;10.83;;;9.20;;
4500;SDS011;2263;54.654;9.410;2023-01-28T00:49:14;9.93;;;8.10;;
4500;SDS011;2263;54.654;9.410;2023-01-28T00:51:42;11.80;;;8.70;;
4500;SDS011;2263;54.654;9.410;2023-01-28T00:54:10;10.97;;;8.87;;
4500;SDS011;2263;54.654;9.410;2023-01-28T00:56:38;10.80;;;9.70;;
4500;SDS011;2263;54.654;9.410;2023-01-28T00:59:05;11.47;;;8.80;;
4500;SDS011;2263;54.654;9.410;2023-01-28T01:01:32;13.43;;;9.30;;
4500;SDS011;2263;54.654;9.410;2023-01-28T01:04:00;9.97;;;7.87;;
4500;SDS011;2263;54.654;9.410;2023-01-28T01:09:02;15.93;;;9.20;;
4500;SDS011;2263;54.654;9.410;2023-01-28T01:11:33;13.27;;;9.47;;
4500;SDS011;2263;54.654;9.410;2023-01-28T01:14:01;10.80;;;8.97;;
4500;SDS011;2263;54.654;9.410;2023-01-28T01:16:30;13.13;;;8.50;;
4500;SDS011;2263;54.654;9.410;2023-01-28T01:18:59;11.60;;;8.97;;
4500;SDS011;2263;54.654;9.410;2023-01-28T01:21:26;11.70;;;8.53;;
4500;SDS011;2263;54.654;9.410;2023-01-28T01:23:55;10.33;;;8.17;;
4500;SDS011;2263;54.654;9.410;2023-01-28T01:26:22;11.10;;;8.80;;
4500;SDS011;2263;54.654;9.410;2023-01-28T01:28:50;17.60;;;8.60;;
4500;SDS011;2263;54.654;9.410;2023-01-28T01:31:18;11.97;;;9.60;;
4500;SDS011;2263;54.654;9.410;2023-01-28T01:33:48;13.30;;;9.73;;
4500;SDS011;2263;54.654;9.410;2023-01-28T01:36:16;9.70;;;8.63;;
4500;SDS011;2263;54.654;9.410;2023-01-28T01:38:45;9.53;;;8.57;;
4500;SDS011;2263;54.654;9.410;2023-01-28T01:41:24;13.63;;;9.10;;
4500;SDS011;2263;54.654;9.410;2023-01-28T01:46:30;8.50;;;7.60;;
4500;SDS011;2263;54.654;9.410;2023-01-28T01:49:01;10.00;;;8.70;;
4500;SDS011;2263;54.654;9.410;2023-01-28T01:51:37;11.60;;;9.87;;
4500;SDS011;2263;54.654;9.410;2023-01-28T01:54:04;9.13;;;7.17;;
4500;SDS011;2263;54.654;9.410;2023-01-28T01:56:34;11.53;;;9.63;;
4500;SDS011;2263;54.654;9.410;2023-01-28T01:59:08;10.53;;;7.93;;
4500;SDS011;2263;54.654;9.410;2023-01-28T02:01:38;10.20;;;8.53;;
4500;SDS011;2263;54.654;9.410;2023-01-28T02:04:08;15.70;;;8.60;;
4500;SDS011;2263;54.654;9.410;2023-01-28T02:06:36;10.47;;;7.87;;
4500;SDS011;2263;54.654;9.410;2023-01-28T02:11:55;10.33;;;8.43;;
4500;SDS011;2263;54.654;9.410;2023-01-28T02:14:27;14.40;;;9.73;;
4500;SDS011;2263;54.654;9.410;2023-01-28T02:16:58;10.57;;;8.13;;
4500;SDS011;2263;54.654;9.410;2023-01-28T02:19:30;9.57;;;8.43;;
4500;SDS011;2263;54.654;9.410;2023-01-28T02:22:19;13.93;;;9.20;;
4500;SDS011;2263;54.654;9.410;2023-01-28T02:28:00;8.63;;;7.70;;
4500;SDS011;2263;54.654;9.410;2023-01-28T02:30:37;9.63;;;8.00;;
4500;SDS011;2263;54.654;9.410;2023-01-28T02:33:16;11.60;;;8.77;;
4500;SDS011;2263;54.654;9.410;2023-01-28T02:35:53;9.03;;;7.43;;
4500;SDS011;2263;54.654;9.410;2023-01-28T02:38:28;12.03;;;7.70;;
4500;SDS011;2263;54.654;9.410;2023-01-28T02:41:06;13.63;;;8.00;;
4500;SDS011;2263;54.654;9.410;2023-01-28T02:49:49;8.67;;;7.40;;
4500;SDS011;2263;54.654;9.410;2023-01-28T02:55:22;8.50;;;7.70;;
4500;SDS011;2263;54.654;9.410;2023-01-28T03:06:03;10.30;;;8.27;;
4500;SDS011;2263;54.654;9.410;2023-01-28T03:08:44;10.30;;;8.50;;
4500;SDS011;2263;54.654;9.410;2023-01-28T03:11:39;10.80;;;8.33;;
4500;SDS011;2263;54.654;9.410;2023-01-28T03:14:27;9.80;;;8.20;;
4500;SDS011;2263;54.654;9.410;2023-01-28T03:17:16;9.53;;;8.13;;
4500;SDS011;2263;54.654;9.410;2023-01-28T03:20:47;7.50;;;6.80;;
4500;SDS011;2263;54.654;9.410;2023-01-28T03:24:00;8.17;;;7.13;;
4500;SDS011;2263;54.654;9.410;2023-01-28T03:26:55;9.13;;;7.00;;
4500;SDS011;2263;54.654;9.410;2023-01-28T03:29:58;10.33;;;8.00;;
4500;SDS011;2263;54.654;9.410;2023-01-28T03:32:47;10.50;;;8.30;;
4500;SDS011;2263;54.654;9.410;2023-01-28T03:35:34;9.03;;;8.23;;
4500;SDS011;2263;54.654;9.410;2023-01-28T03:38:20;10.27;;;8.03;;
4500;SDS011;2263;54.654;9.410;2023-01-28T03:40:49;9.57;;;8.33;;
4500;SDS011;2263;54.654;9.410;2023-01-28T03:43:30;10.27;;;8.57;;
4500;SDS011;2263;54.654;9.410;2023-01-28T03:45:58;9.40;;;7.90;;
4500;SDS011;2263;54.654;9.410;2023-01-28T03:48:28;11.07;;;8.33;;
4500;SDS011;2263;54.654;9.410;2023-01-28T03:50:55;9.33;;;7.50;;
4500;SDS011;2263;54.654;9.410;2023-01-28T03:53:25;8.37;;;7.57;;
4500;SDS011;2263;54.654;9.410;2023-01-28T03:55:53;8.07;;;7.13;;
4500;SDS011;2263;54.654;9.410;2023-01-28T03:58:24;12.00;;;7.43;;
4500;SDS011;2263;54.654;9.410;2023-01-28T04:01:12;9.60;;;8.60;;
4500;SDS011;2263;54.654;9.410;2023-01-28T04:03:39;9.00;;;8.10;;
4500;SDS011;2263;54.654;9.410;2023-01-28T04:06:07;8.83;;;7.93;;
4500;SDS011;2263;54.654;9.410;2023-01-28T04:08:35;9.90;;;8.90;;
4500;SDS011;2263;54.654;9.410;2023-01-28T04:11:02;10.70;;;7.90;;
4500;SDS011;2263;54.654;9.410;2023-01-28T04:13:41;10.13;;;7.30;;
4500;SDS011;2263;54.654;9.410;2023-01-28T04:16:12;7.90;;;7.20;;
4500;SDS011;2263;54.654;9.410;2023-01-28T04:18:41;9.50;;;8.60;;
4500;SDS011;2263;54.654;9.410;2023-01-28T04:21:09;8.50;;;7.57;;
4500;SDS011;2263;54.654;9.410;2023-01-28T04:23:37;18.93;;;8.97;;
4500;SDS011;2263;54.654;9.410;2023-01-28T04:26:04;7.47;;;6.77;;
4500;SDS011;2263;54.654;9.410;2023-01-28T04:28:31;9.23;;;8.03;;
4500;SDS011;2263;54.654;9.410;2023-01-28T04:30:58;11.80;;;8.40;;
4500;SDS011;2263;54.654;9.410;2023-01-28T04:33:25;13.10;;;9.07;;
4500;SDS011;2263;54.654;9.410;2023-01-28T04:35:52;7.87;;;7.17;;
4500;SDS011;2263;54.654;9.410;2023-01-28T04:38:19;11.77;;;9.20;;
4500;SDS011;2263;54.654;9.410;2023-01-28T04:40:50;10.97;;;8.10;;
4500;SDS011;2263;54.654;9.410;2023-01-28T04:43:18;10.43;;;7.90;;
4500;SDS011;2263;54.654;9.410;2023-01-28T04:45:45;10.07;;;9.03;;
4500;SDS011;2263;54.654;9.410;2023-01-28T04:48:14;10.03;;;8.43;;
4500;SDS011;2263;54.654;9.410;2023-01-28T04:50:42;10.23;;;7.87;;
4500;SDS011;2263;54.654;9.410;2023-01-28T04:53:11;11.23;;;9.13;;
4500;SDS011;2263;54.654;9.410;2023-01-28T04:55:38;42.30;;;19.83;;
4500;SDS011;2263;54.654;9.410;2023-01-28T04:58:05;87.57;;;45.77;;
4500;SDS011;2263;54.654;9.410;2023-01-28T05:00:33;77.33;;;42.73;;
4500;SDS011;2263;54.654;9.410;2023-01-28T05:03:00;83.33;;;42.90;;
4500;SDS011;2263;54.654;9.410;2023-01-28T05:05:27;68.77;;;37.40;;
4500;SDS011;2263;54.654;9.410;2023-01-28T05:07:57;70.10;;;35.73;;
4500;SDS011;2263;54.654;9.410;2023-01-28T05:10:25;52.60;;;32.77;;
4500;SDS011;2263;54.654;9.410;2023-01-28T05:12:53;57.27;;;32.00;;
4500;SDS011;2263;54.654;9.410;2023-01-28T05:15:20;48.77;;;29.90;;
4500;SDS011;2263;54.654;9.410;2023-01-28T05:17:48;48.67;;;28.97;;
4500;SDS011;2263;54.654;9.410;2023-01-28T05:20:15;50.37;;;27.40;;
4500;SDS011;2263;54.654;9.410;2023-01-28T05:22:42;40.33;;;24.90;;
4500;SDS011;2263;54.654;9.410;2023-01-28T05:25:09;42.53;;;24.90;;
4500;SDS011;2263;54.654;9.410;2023-01-28T05:27:36;33.43;;;22.30;;
4500;SDS011;2263;54.654;9.410;2023-01-28T05:30:04;32.70;;;21.40;;
4500;SDS011;2263;54.654;9.410;2023-01-28T05:32:32;36.27;;;20.57;;
4500;SDS011;2263;54.654;9.410;2023-01-28T05:34:59;36.43;;;20.83;;
4500;SDS011;2263;54.654;9.410;2023-01-28T05:37:26;33.93;;;20.20;;
4500;SDS011;2263;54.654;9.410;2023-01-28T05:39:53;28.33;;;16.60;;
4500;SDS011;2263;54.654;9.410;2023-01-28T05:42:20;24.77;;;17.00;;
4500;SDS011;2263;54.654;9.410;2023-01-28T05:44:48;23.70;;;16.50;;
4500;SDS011;2263;54.654;9.410;2023-01-28T05:47:15;24.13;;;16.00;;
4500;SDS011;2263;54.654;9.410;2023-01-28T05:49:42;19.73;;;14.30;;
4500;SDS011;2263;54.654;9.410;2023-01-28T05:52:11;22.70;;;14.13;;
4500;SDS011;2263;54.654;9.410;2023-01-28T05:54:38;23.37;;;15.80;;
4500;SDS011;2263;54.654;9.410;2023-01-28T05:57:06;20.13;;;14.23;;
4500;SDS011;2263;54.654;9.410;2023-01-28T05:59:33;18.73;;;13.43;;
4500;SDS011;2263;54.654;9.410;2023-01-28T06:02:00;20.00;;;13.90;;
4500;SDS011;2263;54.654;9.410;2023-01-28T06:04:27;20.77;;;13.47;;
4500;SDS011;2263;54.654;9.410;2023-01-28T06:06:54;16.80;;;11.80;;
4500;SDS011;2263;54.654;9.410;2023-01-28T06:09:21;16.90;;;12.30;;
4500;SDS011;2263;54.654;9.410;2023-01-28T06:11:48;17.50;;;11.33;;
4500;SDS011;2263;54.654;9.410;2023-01-28T06:14:16;23.13;;;12.43;;
4500;SDS011;2263;54.654;9.410;2023-01-28T06:16:43;16.30;;;12.10;;
4500;SDS011;2263;54.654;9.410;2023-01-28T06:19:11;14.83;;;10.57;;
4500;SDS011;2263;54.654;9.410;2023-01-28T06:21:38;17.30;;;11.90;;
4500;SDS011;2263;54.654;9.410;2023-01-28T06:24:05;16.67;;;10.73;;
4500;SDS011;2263;54.654;9.410;2023-01-28T06:26:32;15.63;;;10.60;;
4500;SDS011;2263;54.654;9.410;2023-01-28T06:28:59;15.90;;;10.67;;
4500;SDS011;2263;54.654;9.410;2023-01-28T06:31:26;14.20;;;10.93;;
4500;SDS011;2263;54.654;9.410;2023-01-28T06:33:54;14.13;;;10.80;;
4500;SDS011;2263;54.654;9.410;2023-01-28T06:36:21;13.13;;;9.80;;
4500;SDS011;2263;54.654;9.410;2023-01-28T06:38:48;15.87;;;10.60;;
4500;SDS011;2263;54.654;9.410;2023-01-28T06:41:15;13.30;;;9.47;;
4500;SDS011;2263;54.654;9.410;2023-01-28T06:43:42;12.07;;;9.20;;
4500;SDS011;2263;54.654;9.410;2023-01-28T06:46:10;16.43;;;10.47;;
4500;SDS011;2263;54.654;9.410;2023-01-28T06:48:37;14.20;;;10.50;;
4500;SDS011;2263;54.654;9.410;2023-01-28T06:51:04;16.23;;;11.43;;
4500;SDS011;2263;54.654;9.410;2023-01-28T06:53:34;11.50;;;9.40;;
4500;SDS011;2263;54.654;9.410;2023-01-28T06:56:01;14.23;;;9.47;;
4500;SDS011;2263;54.654;9.410;2023-01-28T06:58:28;15.43;;;9.13;;
4500;SDS011;2263;54.654;9.410;2023-01-28T07:00:58;10.50;;;9.40;;
4500;SDS011;2263;54.654;9.410;2023-01-28T07:03:25;14.63;;;10.50;;
4500;SDS011;2263;54.654;9.410;2023-01-28T07:05:53;11.93;;;10.10;;
4500;SDS011;2263;54.654;9.410;2023-01-28T07:08:20;12.23;;;8.67;;
4500;SDS011;2263;54.654;9.410;2023-01-28T07:10:47;14.03;;;10.37;;
4500;SDS011;2263;54.654;9.410;2023-01-28T07:13:15;14.80;;;11.20;;
4500;SDS011;2263;54.654;9.410;2023-01-28T07:15:42;20.37;;;10.00;;
4500;SDS011;2263;54.654;9.410;2023-01-28T07:18:09;17.40;;;9.93;;
4500;SDS011;2263;54.654;9.410;2023-01-28T07:20:36;14.90;;;10.40;;
4500;SDS011;2263;54.654;9.410;2023-01-28T07:23:03;13.53;;;10.17;;
4500;SDS011;2263;54.654;9.410;2023-01-28T07:25:30;14.97;;;11.03;;
4500;SDS011;2263;54.654;9.410;2023-01-28T07:27:57;15.63;;;10.60;;
4500;SDS011;2263;54.654;9.410;2023-01-28T07:30:24;14.03;;;10.10;;
4500;SDS011;2263;54.654;9.410;2023-01-28T07:32:52;16.83;;;11.27;;
4500;SDS011;2263;54.654;9.410;2023-01-28T07:35:20;18.20;;;10.13;;
4500;SDS011;2263;54.654;9.410;2023-01-28T07:37:52;16.47;;;9.43;;
4500;SDS011;2263;54.654;9.410;2023-01-28T07:40:19;13.97;;;9.93;;
4500;SDS011;2263;54.654;9.410;2023-01-28T07:42:47;13.83;;;9.90;;
4500;SDS011;2263;54.654;9.410;2023-01-28T07:45:17;19.50;;;11.50;;
4500;SDS011;2263;54.654;9.410;2023-01-28T07:47:51;11.80;;;9.77;;
4500;SDS011;2263;54.654;9.410;2023-01-28T07:50:22;13.47;;;9.70;;
4500;SDS011;2263;54.654;9.410;2023-01-28T07:52:50;15.50;;;8.90;;
4500;SDS011;2263;54.654;9.410;2023-01-28T07:55:17;16.83;;;11.10;;
4500;SDS011;2263;54.654;9.410;2023-01-28T07:57:52;17.23;;;10.90;;
4500;SDS011;2263;54.654;9.410;2023-01-28T08:00:30;16.60;;;11.13;;
4500;SDS011;2263;54.654;9.410;2023-01-28T08:03:02;17.80;;;11.10;;
4500;SDS011;2263;54.654;9.410;2023-01-28T08:05:46;18.30;;;10.70;;
4500;SDS011;2263;54.654;9.410;2023-01-28T08:08:16;15.17;;;10.70;;
4500;SDS011;2263;54.654;9.410;2023-01-28T08:10:43;17.63;;;11.80;;
4500;SDS011;2263;54.654;9.410;2023-01-28T08:13:12;15.77;;;11.40;;
4500;SDS011;2263;54.654;9.410;2023-01-28T08:15:43;17.90;;;12.80;;
4500;SDS011;2263;54.654;9.410;2023-01-28T08:18:12;19.17;;;11.83;;
4500;SDS011;2263;54.654;9.410;2023-01-28T08:20:40;18.20;;;11.90;;
4500;SDS011;2263;54.654;9.410;2023-01-28T08:23:16;16.37;;;11.17;;
4500;SDS011;2263;54.654;9.410;2023-01-28T08:25:44;21.53;;;11.93;;
4500;SDS011;2263;54.654;9.410;2023-01-28T08:28:13;17.23;;;10.97;;
4500;SDS011;2263;54.654;9.410;2023-01-28T08:30:45;17.60;;;11.10;;
4500;SDS011;2263;54.654;9.410;2023-01-28T08:33:13;19.30;;;11.93;;
4500;SDS011;2263;54.654;9.410;2023-01-28T08:35:41;18.00;;;12.40;;
4500;SDS011;2263;54.654;9.410;2023-01-28T08:38:09;20.97;;;13.17;;
4500;SDS011;2263;54.654;9.410;2023-01-28T08:40:38;17.60;;;12.23;;
4500;SDS011;2263;54.654;9.410;2023-01-28T08:43:05;21.30;;;12.23;;
4500;SDS011;2263;54.654;9.410;2023-01-28T08:45:32;21.23;;;12.40;;
4500;SDS011;2263;54.654;9.410;2023-01-28T08:48:00;14.77;;;10.77;;
4500;SDS011;2263;54.654;9.410;2023-01-28T08:50:31;19.40;;;11.53;;
4500;SDS011;2263;54.654;9.410;2023-01-28T08:53:01;19.63;;;12.37;;
4500;SDS011;2263;54.654;9.410;2023-01-28T08:55:33;19.77;;;12.77;;
4500;SDS011;2263;54.654;9.410;2023-01-28T08:58:01;22.63;;;12.30;;
4500;SDS011;2263;54.654;9.410;2023-01-28T09:00:30;22.47;;;12.77;;
4500;SDS011;2263;54.654;9.410;2023-01-28T09:02:57;20.50;;;15.57;;
4500;SDS011;2263;54.654;9.410;2023-01-28T09:05:27;31.90;;;14.43;;
4500;SDS011;2263;54.654;9.410;2023-01-28T09:07:55;23.77;;;13.43;;
4500;SDS011;2263;54.654;9.410;2023-01-28T09:10:22;23.17;;;12.93;;
4500;SDS011;2263;54.654;9.410;2023-01-28T09:12:49;26.53;;;12.37;;
4500;SDS011;2263;54.654;9.410;2023-01-28T09:15:16;22.50;;;13.30;;
4500;SDS011;2263;54.654;9.410;2023-01-28T09:17:44;26.50;;;13.53;;
4500;SDS011;2263;54.654;9.410;2023-01-28T09:20:11;19.53;;;12.17;;
4500;SDS011;2263;54.654;9.410;2023-01-28T09:22:39;27.50;;;13.70;;
4500;SDS011;2263;54.654;9.410;2023-01-28T09:25:09;24.27;;;13.60;;
4500;SDS011;2263;54.654;9.410;2023-01-28T09:27:36;23.53;;;13.33;;
4500;SDS011;2263;54.654;9.410;2023-01-28T09:30:03;26.33;;;12.77;;
4500;SDS011;2263;54.654;9.410;2023-01-28T09:32:30;29.80;;;15.10;;
4500;SDS011;2263;54.654;9.410;2023-01-28T09:34:57;23.20;;;13.57;;
4500;SDS011;2263;54.654;9.410;2023-01-28T09:37:27;28.60;;;13.47;;
4500;SDS011;2263;54.654;9.410;2023-01-28T09:39:54;35.10;;;14.23;;
4500;SDS011;2263;54.654;9.410;2023-01-28T09:45:16;26.03;;;13.73;;
4500;SDS011;2263;54.654;9.410;2023-01-28T09:47:58;29.50;;;16.00;;
4500;SDS011;2263;54.654;9.410;2023-01-28T09:53:03;28.20;;;13.77;;
4500;SDS011;2263;54.654;9.410;2023-01-28T09:55:47;27.30;;;15.30;;
4500;SDS011;2263;54.654;9.410;2023-01-28T09:58:21;25.07;;;13.13;;
4500;SDS011;2263;54.654;9.410;2023-01-28T10:18:02;23.93;;;13.30;;
4500;SDS011;2263;54.654;9.410;2023-01-28T10:23:29;29.77;;;14.83;;
4500;SDS011;2263;54.654;9.410;2023-01-28T10:26:29;26.93;;;14.50;;
4500;SDS011;2263;54.654;9.410;2023-01-28T10:29:03;28.03;;;16.13;;
4500;SDS011;2263;54.654;9.410;2023-01-28T10:31:58;35.20;;;15.83;;
4500;SDS011;2263;54.654;9.410;2023-01-28T10:34:44;28.17;;;15.60;;
4500;SDS011;2263;54.654;9.410;2023-01-28T10:37:12;28.60;;;13.43;;
4500;SDS011;2263;54.654;9.410;2023-01-28T10:39:40;27.33;;;14.53;;
4500;SDS011;2263;54.654;9.410;2023-01-28T10:42:14;27.50;;;14.10;;
4500;SDS011;2263;54.654;9.410;2023-01-28T10:44:51;27.13;;;14.67;;
4500;SDS011;2263;54.654;9.410;2023-01-28T10:47:28;31.43;;;14.60;;
4500;SDS011;2263;54.654;9.410;2023-01-28T10:50:00;25.73;;;13.70;;
4500;SDS011;2263;54.654;9.410;2023-01-28T10:52:30;28.63;;;14.97;;
4500;SDS011;2263;54.654;9.410;2023-01-28T10:54:58;32.33;;;14.97;;
4500;SDS011;2263;54.654;9.410;2023-01-28T10:57:26;26.57;;;14.33;;
4500;SDS011;2263;54.654;9.410;2023-01-28T10:59:56;30.03;;;16.07;;
4500;SDS011;2263;54.654;9.410;2023-01-28T11:05:10;32.17;;;16.60;;
4500;SDS011;2263;54.654;9.410;2023-01-28T11:07:46;29.30;;;15.93;;
4500;SDS011;2263;54.654;9.410;2023-01-28T11:10:30;31.53;;;14.80;;
4500;SDS011;2263;54.654;9.410;2023-01-28T11:13:01;31.47;;;14.33;;
4500;SDS011;2263;54.654;9.410;2023-01-28T11:15:30;37.33;;;16.93;;
4500;SDS011;2263;54.654;9.410;2023-01-28T11:17:59;32.83;;;16.10;;
4500;SDS011;2263;54.654;9.410;2023-01-28T11:20:36;28.97;;;15.27;;
4500;SDS011;2263;54.654;9.410;2023-01-28T11:23:14;32.70;;;17.10;;
4500;SDS011;2263;54.654;9.410;2023-01-28T11:25:48;30.27;;;15.77;;
4500;SDS011;2263;54.654;9.410;2023-01-28T11:28:27;26.53;;;14.40;;
4500;SDS011;2263;54.654;9.410;2023-01-28T11:30:55;30.77;;;14.93;;
4500;SDS011;2263;54.654;9.410;2023-01-28T11:33:31;26.97;;;14.83;;
4500;SDS011;2263;54.654;9.410;2023-01-28T11:36:06;32.10;;;16.00;;
4500;SDS011;2263;54.654;9.410;2023-01-28T11:38:34;25.97;;;14.20;;
4500;SDS011;2263;54.654;9.410;2023-01-28T11:41:01;31.97;;;14.70;;
4500;SDS011;2263;54.654;9.410;2023-01-28T11:43:29;27.00;;;13.57;;
4500;SDS011;2263;54.654;9.410;2023-01-28T11:48:55;26.53;;;13.60;;
4500;SDS011;2263;54.654;9.410;2023-01-28T11:54:32;25.13;;;12.77;;
4500;SDS011;2263;54.654;9.410;2023-01-28T11:57:09;22.50;;;13.37;;
4500;SDS011;2263;54.654;9.410;2023-01-28T12:05:33;23.10;;;12.37;;
4500;SDS011;2263;54.654;9.410;2023-01-28T12:08:25;22.70;;;13.10;;
4500;SDS011;2263;54.654;9.410;2023-01-28T12:14:20;20.00;;;11.67;;
4500;SDS011;2263;54.654;9.410;2023-01-28T12:31:47;20.60;;;11.50;;
4500;SDS011;2263;54.654;9.410;2023-01-28T12:37:15;25.13;;;11.73;;
4500;SDS011;2263;54.654;9.410;2023-01-28T12:43:02;21.90;;;12.40;;
4500;SDS011;2263;54.654;9.410;2023-01-28T12:45:38;19.90;;;10.77;;
4500;SDS011;2263;54.654;9.410;2023-01-28T12:48:12;21.23;;;11.50;;
4500;SDS011;2263;54.654;9.410;2023-01-28T12:50:57;19.80;;;12.20;;
4500;SDS011;2263;54.654;9.410;2023-01-28T12:53:37;18.50;;;11.03;;
4500;SDS011;2263;54.654;9.410;2023-01-28T12:56:15;519.57;;;300.67;;
4500;SDS011;2263;54.654;9.410;2023-01-28T12:58:51;326.33;;;127.60;;
4500;SDS011;2263;54.654;9.410;2023-01-28T13:01:41;149.90;;;57.30;;
4500;SDS011;2263;54.654;9.410;2023-01-28T13:09:38;174.83;;;68.60;;
4500;SDS011;2263;54.654;9.410;2023-01-28T13:12:46;145.10;;;54.87;;
4500;SDS011;2263;54.654;9.410;2023-01-28T13:15:15;151.27;;;59.00;;
4500;SDS011;2263;54.654;9.410;2023-01-28T13:18:02;148.37;;;60.03;;
4500;SDS011;2263;54.654;9.410;2023-01-28T13:20:47;127.73;;;53.07;;
4500;SDS011;2263;54.654;9.410;2023-01-28T13:23:25;128.53;;;46.87;;
4500;SDS011;2263;54.654;9.410;2023-01-28T13:26:23;108.83;;;46.90;;
4500;SDS011;2263;54.654;9.410;2023-01-28T13:29:05;105.00;;;42.40;;
4500;SDS011;2263;54.654;9.410;2023-01-28T13:31:40;80.53;;;35.33;;
4500;SDS011;2263;54.654;9.410;2023-01-28T13:34:56;70.00;;;29.80;;
4500;SDS011;2263;54.654;9.410;2023-01-28T13:37:00;71.13;;;29.27;;
4500;SDS011;2263;54.654;9.410;2023-01-28T13:39:31;79.87;;;33.33;;
4500;SDS011;2263;54.654;9.410;2023-01-28T13:42:09;59.67;;;26.47;;
4500;SDS011;2263;54.654;9.410;2023-01-28T13:44:48;56.63;;;25.10;;
4500;SDS011;2263;54.654;9.410;2023-01-28T13:47:23;73.13;;;26.17;;
4500;SDS011;2263;54.654;9.410;2023-01-28T13:55:05;44.10;;;20.10;;
4500;SDS011;2263;54.654;9.410;2023-01-28T14:00:26;44.20;;;18.40;;
4500;SDS011;2263;54.654;9.410;2023-01-28T14:20:19;26.90;;;14.20;;
4500;SDS011;2263;54.654;9.410;2023-01-28T14:22:56;20.23;;;11.00;;
4500;SDS011;2263;54.654;9.410;2023-01-28T14:31:09;21.00;;;11.37;;
4500;SDS011;2263;54.654;9.410;2023-01-28T14:33:41;18.93;;;10.30;;
4500;SDS011;2263;54.654;9.410;2023-01-28T14:36:10;22.37;;;10.97;;
4500;SDS011;2263;54.654;9.410;2023-01-28T14:38:38;20.17;;;11.00;;
4500;SDS011;2263;54.654;9.410;2023-01-28T14:41:07;15.70;;;8.87;;
4500;SDS011;2263;54.654;9.410;2023-01-28T14:43:36;13.53;;;8.83;;
4500;SDS011;2263;54.654;9.410;2023-01-28T14:49:12;24.57;;;9.80;;
4500;SDS011;2263;54.654;9.410;2023-01-28T14:52:08;12.37;;;8.67;;
4500;SDS011;2263;54.654;9.410;2023-01-28T14:54:51;17.83;;;8.90;;
4500;SDS011;2263;54.654;9.410;2023-01-28T14:58:02;16.30;;;8.83;;
4500;SDS011;2263;54.654;9.410;2023-01-28T15:00:52;13.67;;;8.50;;
4500;SDS011;2263;54.654;9.410;2023-01-28T15:03:21;11.50;;;7.63;;
4500;SDS011;2263;54.654;9.410;2023-01-28T15:06:04;11.93;;;6.63;;
4500;SDS011;2263;54.654;9.410;2023-01-28T15:08:32;14.07;;;6.80;;
4500;SDS011;2263;54.654;9.410;2023-01-28T15:11:01;14.17;;;7.13;;
4500;SDS011;2263;54.654;9.410;2023-01-28T15:13:36;12.97;;;8.20;;
4500;SDS011;2263;54.654;9.410;2023-01-28T15:16:06;10.50;;;7.00;;
4500;SDS011;2263;54.654;9.410;2023-01-28T15:18:40;9.60;;;6.37;;
4500;SDS011;2263;54.654;9.410;2023-01-28T15:21:09;5.20;;;4.70;;
4500;SDS011;2263;54.654;9.410;2023-01-28T15:23:37;8.10;;;4.23;;
4500;SDS011;2263;54.654;9.410;2023-01-28T15:26:07;9.40;;;6.20;;
4500;SDS011;2263;54.654;9.410;2023-01-28T15:28:41;7.87;;;6.03;;
4500;SDS011;2263;54.654;9.410;2023-01-28T15:31:21;8.60;;;5.87;;
4500;SDS011;2263;54.654;9.410;2023-01-28T15:33:55;11.40;;;5.40;;
4500;SDS011;2263;54.654;9.410;2023-01-28T15:36:22;8.50;;;6.00;;
4500;SDS011;2263;54.654;9.410;2023-01-28T15:38:50;11.40;;;7.00;;
4500;SDS011;2263;54.654;9.410;2023-01-28T15:41:17;6.57;;;5.47;;
4500;SDS011;2263;54.654;9.410;2023-01-28T15:43:47;7.37;;;4.97;;
4500;SDS011;2263;54.654;9.410;2023-01-28T15:46:16;5.70;;;4.37;;
4500;SDS011;2263;54.654;9.410;2023-01-28T15:48:44;4.87;;;4.30;;
4500;SDS011;2263;54.654;9.410;2023-01-28T15:51:19;7.53;;;5.70;;
4500;SDS011;2263;54.654;9.410;2023-01-28T15:53:51;7.37;;;5.50;;
4500;SDS011;2263;54.654;9.410;2023-01-28T15:56:23;4.90;;;4.27;;
4500;SDS011;2263;54.654;9.410;2023-01-28T15:58:53;6.73;;;4.00;;
4500;SDS011;2263;54.654;9.410;2023-01-28T16:01:21;4.03;;;3.70;;
4500;SDS011;2263;54.654;9.410;2023-01-28T16:03:59;9.70;;;4.70;;
4500;SDS011;2263;54.654;9.410;2023-01-28T16:06:31;9.80;;;4.27;;
4500;SDS011;2263;54.654;9.410;2023-01-28T16:09:05;5.97;;;4.13;;
4500;SDS011;2263;54.654;9.410;2023-01-28T16:11:42;5.63;;;5.10;;
4500;SDS011;2263;54.654;9.410;2023-01-28T16:14:30;6.03;;;3.60;;
4500;SDS011;2263;54.654;9.410;2023-01-28T16:17:07;4.10;;;3.70;;
4500;SDS011;2263;54.654;9.410;2023-01-28T16:19:37;4.43;;;3.97;;
4500;SDS011;2263;54.654;9.410;2023-01-28T16:22:06;6.00;;;3.13;;
4500;SDS011;2263;54.654;9.410;2023-01-28T16:24:47;3.73;;;3.40;;
4500;SDS011;2263;54.654;9.410;2023-01-28T16:27:21;3.70;;;3.40;;
4500;SDS011;2263;54.654;9.410;2023-01-28T16:29:49;4.47;;;3.33;;
4500;SDS011;2263;54.654;9.410;2023-01-28T16:34:59;4.90;;;3.20;;
4500;SDS011;2263;54.654;9.410;2023-01-28T16:37:26;2.60;;;2.40;;
4500;SDS011;2263;54.654;9.410;2023-01-28T16:39:53;4.33;;;3.70;;
4500;SDS011;2263;54.654;9.410;2023-01-28T16:42:21;3.43;;;1.90;;
4500;SDS011;2263;54.654;9.410;2023-01-28T16:44:48;3.47;;;2.33;;
4500;SDS011;2263;54.654;9.410;2023-01-28T16:47:15;4.40;;;2.70;;
4500;SDS011;2263;54.654;9.410;2023-01-28T16:49:42;2.43;;;2.20;;
4500;SDS011;2263;54.654;9.410;2023-01-28T16:52:15;3.97;;;2.80;;
4500;SDS011;2263;54.654;9.410;2023-01-28T16:54:43;4.33;;;2.13;;
4500;SDS011;2263;54.654;9.410;2023-01-28T16:57:29;4.67;;;2.57;;
4500;SDS011;2263;54.654;9.410;2023-01-28T17:00:00;5.70;;;2.27;;
4500;SDS011;2263;54.654;9.410;2023-01-28T17:02:28;4.90;;;2.47;;
4500;SDS011;2263;54.654;9.410;2023-01-28T17:04:55;19.07;;;2.57;;
4500;SDS011;2263;54.654;9.410;2023-01-28T17:07:22;2.33;;;2.10;;
4500;SDS011;2263;54.654;9.410;2023-01-28T17:09:49;7.23;;;2.80;;
4500;SDS011;2263;54.654;9.410;2023-01-28T17:12:16;3.10;;;2.07;;
4500;SDS011;2263;54.654;9.410;2023-01-28T17:14:43;7.43;;;2.40;;
4500;SDS011;2263;54.654;9.410;2023-01-28T17:17:10;4.67;;;1.90;;
4500;SDS011;2263;54.654;9.410;2023-01-28T17:19:38;4.33;;;1.83;;
4500;SDS011;2263;54.654;9.410;2023-01-28T17:22:05;8.93;;;2.27;;
4500;SDS011;2263;54.654;9.410;2023-01-28T17:24:32;3.50;;;2.37;;
4500;SDS011;2263;54.654;9.410;2023-01-28T17:27:00;7.53;;;3.70;;
4500;SDS011;2263;54.654;9.410;2023-01-28T17:29:27;6.50;;;3.90;;
4500;SDS011;2263;54.654;9.410;2023-01-28T17:31:54;8.87;;;3.20;;
4500;SDS011;2263;54.654;9.410;2023-01-28T17:34:22;11.70;;;4.00;;
4500;SDS011;2263;54.654;9.410;2023-01-28T17:36:49;8.47;;;3.10;;
4500;SDS011;2263;54.654;9.410;2023-01-28T17:39:16;4.17;;;3.60;;
4500;SDS011;2263;54.654;9.410;2023-01-28T17:41:43;6.33;;;2.70;;